Time;durP1;ratioP1;P1;durP2;ratioP2;P2;SDS_P1;SDS_P2;PMS_P1;PMS_P2;Temp;Humidity;BMP_temperature;BMP_pressure;BME280_temperature;BME280_humidity;BME280_pressure;Samples;Min_cycle;Max_cycle;Signal;HPM_P1;HPM_P2
2023/04/12 00:00:34;;;;;;;;;3.75;3.50;;;;;10.75;80.24;100035.88;5058974;27;45497;-69
2023/04/12 00:03:04;;;;;;;;;6.25;4.00;;;;;10.43;80.77;99989.91;5059053;27;45589;-70
2023/04/12 00:05:30;;;;;;;;;8.50;5.75;;;;;10.65;80.63;100014.13;5061287;27;45423;-73
2023/04/12 00:07:57;;;;;;;;;5.25;5.25;;;;;10.67;80.94;100017.59;5060817;27;46195;-72
2023/04/12 00:10:23;;;;;;;;;8.50;5.00;;;;;10.72;81.35;100020.19;5060313;27;45429;-71
2023/04/12 00:12:48;;;;;;;;;4.50;4.50;;;;;10.72;81.39;100009.69;5072319;27;45259;-71
2023/04/12 00:15:14;;;;;;;;;5.00;4.00;;;;;10.70;81.29;99999.25;5081388;27;45496;-71
2023/04/12 00:17:40;;;;;;;;;8.75;5.50;;;;;10.80;81.50;100000.03;5078399;27;46217;-71
2023/04/12 00:20:12;;;;;;;;;8.00;5.00;;;;;10.71;81.41;100007.97;5074954;27;45559;-70
2023/04/12 00:22:40;;;;;;;;;9.75;6.50;;;;;10.77;81.44;99998.31;5076783;27;45504;-71
2023/04/12 00:25:06;;;;;;;;;4.00;3.75;;;;;10.71;81.60;99987.88;5092589;27;45311;-74
2023/04/12 00:27:31;;;;;;;;;5.75;4.00;;;;;10.72;81.99;99981.75;5076842;27;45336;-70
2023/04/12 00:29:57;;;;;;;;;5.50;5.50;;;;;10.72;82.13;99978.28;5067617;27;45623;-71
2023/04/12 00:32:22;;;;;;;;;7.75;5.00;;;;;10.68;81.52;99963.47;5077062;28;45256;-71
2023/04/12 00:34:48;;;;;;;;;8.50;5.00;;;;;10.74;81.56;99976.50;5073904;27;45495;-72
2023/04/12 00:37:13;;;;;;;;;8.50;5.00;;;;;10.71;82.03;99966.94;5064981;27;46484;-71
2023/04/12 00:39:39;;;;;;;;;5.00;5.00;;;;;10.73;81.40;99953.84;5075192;27;45822;-71
2023/04/12 00:42:05;;;;;;;;;7.50;4.25;;;;;10.72;81.55;99960.78;5061478;28;46000;-73
2023/04/12 00:44:32;;;;;;;;;4.75;4.75;;;;;10.69;81.37;99942.50;5075378;27;45515;-72
2023/04/12 00:46:59;;;;;;;;;3.00;3.00;;;;;10.73;81.80;99938.97;5092937;27;45489;-71
2023/04/12 00:49:29;;;;;;;;;13.25;6.00;;;;;10.84;81.92;99938.84;5063537;27;45410;-73
2023/04/12 00:52:05;;;;;;;;;7.50;4.50;;;;;10.81;81.17;99931.88;5073572;27;45437;-71
2023/04/12 00:54:32;;;;;;;;;9.00;5.00;;;;;10.75;81.83;99903.16;5075994;27;45534;-70
2023/04/12 00:56:59;;;;;;;;;5.00;4.75;;;;;10.66;81.37;99892.78;5074114;27;46811;-71
2023/04/12 00:59:26;;;;;;;;;6.25;5.00;;;;;10.60;81.30;99864.03;5074619;27;45540;-71
2023/04/12 01:01:53;;;;;;;;;7.00;4.75;;;;;10.83;81.07;99900.44;5091670;27;45428;-71
2023/04/12 01:04:21;;;;;;;;;4.75;3.00;;;;;10.87;81.53;99907.38;5074895;27;45505;-71
2023/04/12 01:07:14;;;;;;;;;4.00;3.25;;;;;10.90;81.03;99902.09;5061720;27;45498;-72
2023/04/12 01:10:13;;;;;;;;;7.25;4.00;;;;;10.83;80.74;99842.81;5070710;27;45405;-72
2023/04/12 01:12:47;;;;;;;;;5.75;5.00;;;;;10.88;80.97;99856.72;5078807;28;46291;-71
2023/04/12 01:15:15;;;;;;;;;4.25;4.25;;;;;10.82;81.60;99847.19;5095981;27;45597;-70
2023/04/12 01:18:04;;;;;;;;;5.50;3.25;;;;;10.80;81.25;99835.88;5093553;27;47802;-71
2023/04/12 01:20:38;;;;;;;;;5.75;5.50;;;;;10.79;81.46;99836.72;5091366;27;45764;-73
2023/04/12 01:23:30;;;;;;;;;9.00;4.00;;;;;10.90;81.31;99854.09;5079769;27;45405;-70
2023/04/12 01:26:31;;;;;;;;;5.00;5.00;;;;;10.91;81.00;99843.56;5078333;27;45376;-70
2023/04/12 01:29:00;;;;;;;;;4.50;4.00;;;;;10.78;81.08;99834.16;5074794;27;45565;-71
2023/04/12 01:31:30;;;;;;;;;5.75;5.75;;;;;10.86;81.42;99845.38;5076219;27;45503;-70
2023/04/12 01:33:58;;;;;;;;;8.75;5.75;;;;;10.76;81.30;99828.94;5076185;27;45683;-71
2023/04/12 01:36:27;;;;;;;;;8.00;4.25;;;;;10.78;81.34;99827.16;5075735;27;45917;-70
2023/04/12 01:38:53;;;;;;;;;7.00;4.00;;;;;10.72;81.81;99801.03;5077836;27;45448;-72
2023/04/12 01:41:20;;;;;;;;;5.75;4.25;;;;;10.74;81.94;99798.41;5060571;27;46591;-71
2023/04/12 01:43:47;;;;;;;;;7.00;3.00;;;;;10.73;82.23;99807.16;5075602;27;45518;-70
2023/04/12 01:46:15;;;;;;;;;5.25;4.00;;;;;10.77;81.85;99795.72;5075538;27;45426;-70
2023/04/12 01:48:47;;;;;;;;;10.50;7.25;;;;;10.75;82.21;99793.16;5074766;27;47830;-70
2023/04/12 01:51:44;;;;;;;;;3.50;3.25;;;;;10.87;81.60;99797.38;5095027;27;45440;-69
2023/04/12 01:54:18;;;;;;;;;9.00;7.00;;;;;10.83;82.04;99775.56;5065223;27;45460;-70
2023/04/12 01:56:49;;;;;;;;;4.50;3.00;;;;;10.85;81.79;99786.03;5090872;27;45511;-71
2023/04/12 01:59:17;;;;;;;;;3.75;3.75;;;;;10.71;81.91;99751.31;5073828;27;46349;-71
2023/04/12 02:01:45;;;;;;;;;6.00;4.00;;;;;10.86;81.78;99768.56;5090896;27;45629;-71
2023/04/12 02:04:13;;;;;;;;;4.25;3.25;;;;;10.84;81.66;99760.72;5090690;27;45544;-70
2023/04/12 02:06:41;;;;;;;;;5.75;3.25;;;;;10.94;81.95;99779.78;5075948;27;45570;-70
2023/04/12 02:09:06;;;;;;;;;5.00;4.75;;;;;10.94;82.07;99749.22;5066748;27;47608;-72
2023/04/12 02:11:33;;;;;;;;;5.00;5.00;;;;;10.87;82.23;99749.31;5078897;27;45439;-72
2023/04/12 02:13:59;;;;;;;;;5.75;4.25;;;;;10.97;82.50;99762.25;5079611;27;45501;-72
2023/04/12 02:16:28;;;;;;;;;6.00;4.00;;;;;10.95;82.06;99755.31;5077215;27;45354;-71
2023/04/12 02:18:56;;;;;;;;;4.25;3.00;;;;;10.86;82.19;99719.63;5075043;27;46294;-71
2023/04/12 02:21:21;;;;;;;;;7.25;4.75;;;;;10.94;82.16;99728.25;5075089;28;45417;-75
2023/04/12 02:23:47;;;;;;;;;3.00;3.00;;;;;10.99;82.20;99723.81;5074883;27;45437;-70
2023/04/12 02:26:12;;;;;;;;;5.75;3.75;;;;;11.04;82.96;99721.13;5075233;27;45452;-71
2023/04/12 02:28:38;;;;;;;;;3.25;3.25;;;;;11.02;82.81;99712.41;5075223;27;45596;-72
2023/04/12 02:31:05;;;;;;;;;4.25;4.25;;;;;11.06;83.32;99707.97;5074538;27;45514;-71
2023/04/12 02:33:31;;;;;;;;;3.25;2.75;;;;;10.97;83.15;99686.28;5074895;28;45467;-71
2023/04/12 02:35:58;;;;;;;;;4.50;3.00;;;;;11.14;82.96;99706.09;5090705;27;45520;-70
2023/04/12 02:38:23;;;;;;;;;6.00;4.25;;;;;11.14;82.25;99688.63;5079271;27;46141;-72
2023/04/12 02:40:49;;;;;;;;;10.50;5.00;;;;;11.03;82.51;99659.09;5094389;27;45304;-72
2023/04/12 02:43:15;;;;;;;;;4.50;4.00;;;;;11.17;82.46;99677.22;5065132;27;45557;-72
2023/04/12 02:45:41;;;;;;;;;3.25;3.00;;;;;10.99;82.18;99620.78;5094937;27;45295;-73
2023/04/12 02:48:06;;;;;;;;;6.75;3.00;;;;;11.24;82.39;99666.59;5077208;27;47803;-73
2023/04/12 02:50:32;;;;;;;;;4.00;4.00;;;;;11.03;82.22;99630.28;5074216;27;45877;-74
2023/04/12 02:52:57;;;;;;;;;5.00;2.75;;;;;11.25;82.33;99650.00;5074606;27;45474;-70
2023/04/12 02:55:24;;;;;;;;;2.00;2.00;;;;;11.34;82.70;99669.94;5074497;27;45422;-73
2023/04/12 02:57:50;;;;;;;;;2.00;2.00;;;;;11.23;82.18;99630.81;5072927;27;47662;-73
2023/04/12 03:00:15;;;;;;;;;2.75;2.75;;;;;11.36;82.11;99651.53;5089372;27;45486;-71
2023/04/12 03:02:42;;;;;;;;;4.25;3.00;;;;;11.36;82.63;99644.53;5073618;27;45775;-72
2023/04/12 03:05:08;;;;;;;;;4.00;4.00;;;;;11.21;83.14;99613.38;5074554;27;45605;-70
2023/04/12 03:07:34;;;;;;;;;1.50;1.50;;;;;11.39;82.43;99638.38;5089314;27;46820;-74
2023/04/12 03:10:00;;;;;;;;;2.00;2.00;;;;;11.46;82.47;99632.16;5071975;27;45361;-70
2023/04/12 03:12:26;;;;;;;;;4.25;2.50;;;;;11.55;82.37;99644.19;5074341;27;45453;-70
2023/04/12 03:14:51;;;;;;;;;4.00;2.75;;;;;11.25;82.58;99586.22;5076781;27;45584;-70
2023/04/12 03:17:17;;;;;;;;;1.25;1.00;;;;;11.46;82.73;99622.50;5075063;27;46337;-72
2023/04/12 03:19:45;;;;;;;;;2.75;2.00;;;;;11.52;83.19;99618.91;5073459;27;45472;-70
2023/04/12 03:22:10;;;;;;;;;2.25;1.25;;;;;11.55;83.21;99615.34;5073815;27;45502;-72
2023/04/12 03:24:37;;;;;;;;;1.00;1.00;;;;;11.63;82.87;99616.06;5074460;28;45810;-73
2023/04/12 03:27:04;;;;;;;;;4.75;2.25;;;;;11.64;82.35;99609.91;5078133;27;45499;-73
2023/04/12 03:29:30;;;;;;;;;3.75;2.00;;;;;11.63;82.87;99606.44;5073678;28;45480;-73
2023/04/12 03:31:57;;;;;;;;;3.75;2.00;;;;;11.44;82.74;99581.50;5074362;27;45441;-72
2023/04/12 03:34:26;;;;;;;;;3.00;1.75;;;;;11.61;82.85;99608.22;5089883;27;45400;-73
2023/04/12 03:36:54;;;;;;;;;2.75;1.75;;;;;11.69;82.82;99626.41;5089290;27;47599;-73
2023/04/12 03:39:19;;;;;;;;;2.50;1.00;;;;;11.68;82.52;99633.44;5089267;27;45479;-73
2023/04/12 03:41:45;;;;;;;;;2.00;1.00;;;;;11.88;82.00;99659.28;5091263;27;45467;-70
2023/04/12 03:44:11;;;;;;;;;3.00;1.00;;;;;11.80;82.40;99640.19;5074969;27;45428;-71
2023/04/12 03:46:37;;;;;;;;;2.00;1.00;;;;;11.89;80.95;99641.81;5073365;27;45430;-71
2023/04/12 03:49:02;;;;;;;;;0.00;0.00;;;;;11.93;79.89;99640.81;5072435;27;45552;-74
2023/04/12 03:51:29;;;;;;;;;0.00;0.00;;;;;11.99;80.32;99642.47;5073888;28;45478;-73
2023/04/12 03:53:55;;;;;;;;;0.00;0.00;;;;;11.99;78.63;99630.22;5073104;27;45868;-72
2023/04/12 03:56:21;;;;;;;;;0.00;0.00;;;;;12.01;78.57;99636.28;5089723;27;45450;-73
2023/04/12 03:58:46;;;;;;;;;0.00;0.00;;;;;12.00;78.87;99623.19;5074116;27;45527;-72
2023/04/12 04:01:12;;;;;;;;;0.00;0.00;;;;;12.06;78.61;99629.19;5074234;28;45354;-71
2023/04/12 04:03:41;;;;;;;;;0.00;0.00;;;;;12.03;77.82;99623.13;5058748;27;45484;-73
2023/04/12 04:06:07;;;;;;;;;0.00;0.00;;;;;12.06;77.64;99628.31;5081491;27;47733;-72
2023/04/12 04:08:33;;;;;;;;;0.00;0.00;;;;;12.08;77.28;99634.41;5071324;27;45627;-71
2023/04/12 04:10:59;;;;;;;;;0.00;0.00;;;;;12.10;77.68;99635.22;5074350;27;45469;-71
2023/04/12 04:13:25;;;;;;;;;0.00;0.00;;;;;12.09;77.56;99620.38;5072565;27;45370;-75
2023/04/12 04:15:59;;;;;;;;;0.00;0.00;;;;;12.11;76.72;99620.34;5076639;27;45479;-76
2023/04/12 04:18:24;;;;;;;;;0.00;0.00;;;;;12.09;76.66;99615.97;5091912;27;45630;-73
2023/04/12 04:20:50;;;;;;;;;0.00;0.00;;;;;12.14;76.87;99620.28;5088870;27;45408;-74
2023/04/12 04:23:16;;;;;;;;;0.00;0.00;;;;;12.10;76.84;99614.22;5076567;27;45536;-72
2023/04/12 04:25:42;;;;;;;;;0.00;0.00;;;;;12.15;76.16;99607.13;5077141;27;45348;-72
2023/04/12 04:28:08;;;;;;;;;0.00;0.00;;;;;12.08;76.57;99600.28;5077530;27;46193;-74
2023/04/12 04:30:37;;;;;;;;;0.00;0.00;;;;;12.02;76.91;99601.25;5079706;27;45497;-75
2023/04/12 04:33:05;;;;;;;;;0.00;0.00;;;;;12.06;76.25;99615.19;5080107;27;45404;-73
2023/04/12 04:35:31;;;;;;;;;0.00;0.00;;;;;12.05;76.62;99610.81;5078782;27;45605;-73
2023/04/12 04:37:57;;;;;;;;;0.00;0.00;;;;;12.03;75.88;99608.25;5077682;27;45432;-72
2023/04/12 04:40:23;;;;;;;;;0.00;0.00;;;;;12.02;76.32;99605.66;5067763;27;45515;-72
2023/04/12 04:42:56;;;;;;;;;0.00;0.00;;;;;12.12;75.60;99616.81;5063853;27;45486;-73
2023/04/12 04:45:25;;;;;;;;;0.00;0.00;;;;;12.09;75.76;99620.38;5096192;27;47870;-72
2023/04/12 04:47:52;;;;;;;;;0.00;0.00;;;;;12.12;76.24;99622.91;5092277;27;45479;-71
2023/04/12 04:50:22;;;;;;;;;0.00;0.00;;;;;12.11;76.15;99618.59;5078763;27;45500;-70
2023/04/12 04:52:51;;;;;;;;;0.00;0.00;;;;;12.07;75.76;99623.00;5081235;27;45558;-72
2023/04/12 04:55:17;;;;;;;;;1.00;0.00;;;;;12.05;76.22;99618.69;5076595;27;47757;-72
2023/04/12 04:57:43;;;;;;;;;0.00;0.00;;;;;11.93;76.63;99613.72;5093310;27;45503;-71
2023/04/12 05:00:10;;;;;;;;;0.00;0.00;;;;;11.90;76.83;99608.56;5079117;27;45593;-71
2023/04/12 05:02:41;;;;;;;;;2.00;0.00;;;;;11.81;77.53;99607.81;5093927;27;45683;-72
2023/04/12 05:05:14;;;;;;;;;0.00;0.00;;;;;11.84;77.17;99606.88;5093323;27;45833;-72
2023/04/12 05:07:42;;;;;;;;;0.67;0.00;;;;;11.74;77.44;99603.59;5096118;27;45599;-70
2023/04/12 05:10:09;;;;;;;;;0.00;0.00;;;;;11.61;77.52;99573.28;5086415;27;45412;-72
2023/04/12 05:12:35;;;;;;;;;0.00;0.00;;;;;11.77;77.90;99593.03;5085523;27;44809;-74
2023/04/12 05:15:01;;;;;;;;;0.00;0.00;;;;;11.67;77.65;99588.88;5088030;27;45422;-72
2023/04/12 05:17:27;;;;;;;;;0.00;0.00;;;;;11.72;77.10;99601.88;5089696;27;45230;-71
2023/04/12 05:19:53;;;;;;;;;0.00;0.00;;;;;11.82;77.26;99600.81;5084954;27;45431;-71
2023/04/12 05:22:22;;;;;;;;;0.00;0.00;;;;;11.78;77.17;99586.03;5082480;27;45294;-75
2023/04/12 05:24:48;;;;;;;;;2.67;0.00;;;;;11.86;76.69;99592.84;5096357;27;47551;-75
2023/04/12 05:27:17;;;;;;;;;0.33;0.00;;;;;11.81;77.09;99588.56;5079987;27;45364;-74
2023/04/12 05:29:43;;;;;;;;;1.75;1.00;;;;;11.97;76.92;99621.50;5117518;27;45487;-72
2023/04/12 05:32:09;;;;;;;;;0.33;0.33;;;;;11.98;76.39;99622.34;5071484;27;45612;-72
2023/04/12 05:34:36;;;;;;;;;1.00;1.00;;;;;11.95;76.25;99623.28;5085222;27;48027;-74
2023/04/12 05:37:02;;;;;;;;;1.00;0.00;;;;;12.00;76.77;99644.19;5083550;27;45375;-75
2023/04/12 05:39:29;;;;;;;;;1.25;1.00;;;;;12.01;76.58;99656.44;5081353;27;45402;-74
2023/04/12 05:41:55;;;;;;;;;4.25;3.00;;;;;11.90;74.21;99640.03;5083787;27;45454;-74
2023/04/12 05:44:20;;;;;;;;;1.25;1.25;;;;;11.90;74.29;99661.03;5078206;27;46967;-74
2023/04/12 05:46:46;;;;;;;;;3.25;3.25;;;;;11.89;73.13;99662.78;5092824;27;45520;-74
2023/04/12 05:49:12;;;;;;;;;4.00;1.50;;;;;11.78;72.11;99656.88;5093052;27;45511;-74
2023/04/12 05:51:37;;;;;;;;;1.00;1.00;;;;;11.78;71.51;99667.34;5077393;27;45479;-73
2023/04/12 05:54:05;;;;;;;;;0.00;0.00;;;;;11.66;71.96;99671.94;5091131;27;47771;-74
2023/04/12 05:56:32;;;;;;;;;0.00;0.00;;;;;11.65;71.58;99670.22;5071885;27;45428;-73
2023/04/12 05:59:00;;;;;;;;;1.00;1.00;;;;;11.58;70.23;99678.22;5069188;27;45449;-71
2023/04/12 06:01:30;;;;;;;;;1.00;0.00;;;;;11.60;70.13;99695.69;5079932;27;45302;-73
2023/04/12 06:03:56;;;;;;;;;0.00;0.00;;;;;11.53;69.79;99696.69;5078664;27;46706;-73
2023/04/12 06:06:22;;;;;;;;;1.00;1.00;;;;;11.57;69.31;99705.34;5091267;27;45526;-74
2023/04/12 06:08:47;;;;;;;;;0.33;0.33;;;;;11.43;69.01;99702.97;5074966;28;45509;-75
2023/04/12 06:11:13;;;;;;;;;0.00;0.00;;;;;11.43;70.31;99705.59;5078816;28;45396;-75
2023/04/12 06:13:39;;;;;;;;;4.00;1.00;;;;;11.36;70.50;99688.25;5075640;27;46036;-75
2023/04/12 06:16:05;;;;;;;;;1.25;1.00;;;;;11.33;70.51;99689.16;5075557;27;45520;-74
2023/04/12 06:18:31;;;;;;;;;3.00;2.00;;;;;11.41;71.02;99699.50;5074020;27;45549;-73
2023/04/12 06:20:56;;;;;;;;;0.25;0.25;;;;;11.49;70.49;99700.25;5077883;27;45624;-72
2023/04/12 06:23:22;;;;;;;;;1.00;1.00;;;;;11.30;71.07;99649.06;5077334;27;46819;-72
2023/04/12 06:25:49;;;;;;;;;3.00;2.00;;;;;11.58;70.81;99688.72;5075196;27;45436;-75
2023/04/12 06:28:15;;;;;;;;;3.00;2.00;;;;;11.44;71.20;99675.88;5075149;27;45404;-73
2023/04/12 06:30:41;;;;;;;;;2.00;2.00;;;;;11.52;71.37;99707.19;5075036;27;45336;-73
2023/04/12 06:33:07;;;;;;;;;2.75;2.75;;;;;11.57;70.89;99721.09;5093154;27;48100;-75
2023/04/12 06:35:32;;;;;;;;;3.25;2.00;;;;;11.57;71.74;99728.94;5078629;27;45626;-75
2023/04/12 06:37:58;;;;;;;;;6.75;3.75;;;;;11.49;70.84;99708.13;5089771;27;45475;-74
2023/04/12 06:40:24;;;;;;;;;1.75;1.75;;;;;11.50;71.65;99706.34;5069733;27;45370;-74
2023/04/12 06:42:49;;;;;;;;;2.00;2.00;;;;;11.53;71.42;99701.94;5079248;27;45433;-75
2023/04/12 06:45:15;;;;;;;;;3.00;2.00;;;;;11.62;71.00;99683.38;5075116;27;45441;-71
2023/04/12 06:47:41;;;;;;;;;5.00;3.50;;;;;11.72;71.40;99689.34;5072542;27;45486;-74
2023/04/12 06:50:07;;;;;;;;;3.00;3.00;;;;;11.67;71.92;99691.16;5073643;27;45587;-74
2023/04/12 06:52:32;;;;;;;;;4.75;3.75;;;;;11.60;71.59;99671.19;5074577;28;47697;-77
2023/04/12 06:54:58;;;;;;;;;2.00;2.00;;;;;11.73;71.48;99696.28;5079484;27;45466;-72
2023/04/12 06:57:24;;;;;;;;;2.50;2.50;;;;;11.77;71.10;99704.97;5079184;27;45465;-76
2023/04/12 06:59:49;;;;;;;;;5.00;2.25;;;;;11.67;70.99;99693.78;5075034;28;45884;-72
2023/04/12 07:02:16;;;;;;;;;6.75;3.00;;;;;11.79;69.69;99711.94;5074367;27;45559;-73
2023/04/12 07:04:41;;;;;;;;;4.50;4.00;;;;;11.79;69.08;99709.31;5077975;27;45433;-70
2023/04/12 07:07:09;;;;;;;;;4.00;3.00;;;;;11.87;67.61;99715.28;5094804;27;45852;-73
2023/04/12 07:09:35;;;;;;;;;7.75;3.00;;;;;11.92;66.73;99722.22;5077392;27;45423;-71
2023/04/12 07:12:01;;;;;;;;;1.00;1.00;;;;;11.91;66.67;99713.47;5074125;27;45611;-71
2023/04/12 07:14:27;;;;;;;;;3.00;2.00;;;;;11.98;67.23;99714.19;5089996;27;45431;-72
2023/04/12 07:16:53;;;;;;;;;3.00;2.00;;;;;11.99;66.31;99700.19;5062021;27;45359;-71
2023/04/12 07:19:21;;;;;;;;;4.00;3.00;;;;;12.06;66.10;99712.31;5059872;28;45474;-70
2023/04/12 07:21:47;;;;;;;;;4.00;4.00;;;;;12.00;66.13;99707.16;5058515;28;46315;-71
2023/04/12 07:24:13;;;;;;;;;1.50;1.50;;;;;11.98;66.04;99694.09;5053001;28;45446;-71
2023/04/12 07:26:38;;;;;;;;;3.67;1.00;;;;;12.03;65.79;99696.59;5067495;27;45396;-72
2023/04/12 07:29:04;;;;;;;;;0.50;0.00;;;;;11.94;65.97;99689.81;5073121;27;45509;-72
2023/04/12 07:31:29;;;;;;;;;1.75;1.00;;;;;11.88;66.49;99690.75;5084854;27;46823;-71
2023/04/12 07:33:55;;;;;;;;;2.25;1.00;;;;;11.86;66.70;99684.69;5056533;28;45524;-71
2023/04/12 07:36:21;;;;;;;;;1.25;0.25;;;;;11.90;65.16;99685.50;5053703;27;45457;-70
2023/04/12 07:38:47;;;;;;;;;0.00;0.00;;;;;11.88;65.75;99661.91;5062212;27;45645;-76
2023/04/12 07:41:13;;;;;;;;;0.00;0.00;;;;;12.00;66.52;99658.16;5076711;27;45321;-71
2023/04/12 07:43:38;;;;;;;;;1.50;0.25;;;;;12.32;65.93;99676.78;5076892;28;45513;-72
2023/04/12 07:46:07;;;;;;;;;1.00;1.00;;;;;12.41;65.54;99666.03;5074707;27;45664;-72
2023/04/12 07:48:33;;;;;;;;;2.67;0.33;;;;;12.51;64.54;99678.94;5090132;27;45612;-72
2023/04/12 07:50:58;;;;;;;;;1.33;0.33;;;;;12.53;63.82;99676.28;5086511;27;46959;-73
2023/04/12 07:53:28;;;;;;;;;0.75;0.75;;;;;12.55;63.93;99663.94;5067731;27;45488;-73
2023/04/12 07:55:54;;;;;;;;;1.00;1.00;;;;;12.65;64.04;99662.84;5068625;28;45291;-74
2023/04/12 07:58:21;;;;;;;;;1.00;0.00;;;;;12.81;63.72;99675.63;5074288;27;45643;-76
2023/04/12 08:00:48;;;;;;;;;0.00;0.00;;;;;12.73;62.44;99663.53;5057078;27;46210;-76
2023/04/12 08:03:16;;;;;;;;;2.00;1.00;;;;;12.80;63.21;99668.66;5069654;27;45544;-76
2023/04/12 08:05:43;;;;;;;;;0.00;0.00;;;;;12.97;62.85;99684.84;5058826;27;45627;-72
2023/04/12 08:08:09;;;;;;;;;0.00;0.00;;;;;13.18;62.33;99672.94;5074020;27;45739;-77
2023/04/12 08:10:38;;;;;;;;;2.33;1.00;;;;;13.60;62.05;99680.66;5057874;27;45557;-72
2023/04/12 08:13:05;;;;;;;;;2.00;2.00;;;;;13.93;59.89;99692.00;5057997;27;45514;-72
2023/04/12 08:15:31;;;;;;;;;1.33;1.00;;;;;13.98;59.49;99668.19;5057889;27;45477;-73
2023/04/12 08:17:56;;;;;;;;;1.67;1.00;;;;;14.17;58.82;99697.47;5058851;28;45543;-72
2023/04/12 08:20:22;;;;;;;;;2.00;0.00;;;;;14.23;58.10;99705.19;5058810;27;45513;-72
2023/04/12 08:22:48;;;;;;;;;1.00;1.00;;;;;14.19;58.75;99698.28;5062479;27;45717;-72
2023/04/12 08:25:14;;;;;;;;;2.00;0.00;;;;;14.23;58.72;99715.72;5062629;27;45531;-70
2023/04/12 08:27:44;;;;;;;;;1.67;1.00;;;;;14.17;57.88;99731.72;5061648;27;45726;-71
2023/04/12 08:30:10;;;;;;;;;0.00;0.00;;;;;14.10;57.76;99731.00;5056410;27;45461;-72
2023/04/12 08:32:36;;;;;;;;;0.00;0.00;;;;;14.03;57.21;99718.94;5056413;27;45559;-72
2023/04/12 08:35:05;;;;;;;;;3.00;1.00;;;;;14.07;57.35;99732.84;5056783;27;45536;-75
2023/04/12 08:37:31;;;;;;;;;70.75;50.75;;;;;14.13;59.12;99746.72;5064625;27;45589;-70
2023/04/12 08:40:03;;;;;;;;;18.75;16.50;;;;;13.78;58.02;99703.81;5073788;27;46233;-70
2023/04/12 08:42:30;;;;;;;;;7.33;6.33;;;;;14.02;56.90;99740.03;5075674;27;45341;-72
2023/04/12 08:44:56;;;;;;;;;2.00;2.00;;;;;14.04;58.35;99739.06;5062672;27;45617;-76
2023/04/12 08:47:22;;;;;;;;;1.00;1.00;;;;;14.11;59.17;99732.72;5068833;27;45626;-70
2023/04/12 08:49:50;;;;;;;;;2.00;2.00;;;;;14.34;57.34;99749.66;5058108;27;46050;-76
2023/04/12 08:52:16;;;;;;;;;2.67;1.00;;;;;14.55;56.71;99742.91;5063361;27;45362;-69
2023/04/12 08:54:42;;;;;;;;;0.00;0.00;;;;;14.57;57.07;99715.63;5094023;27;45235;-72
2023/04/12 08:57:08;;;;;;;;;2.67;0.67;;;;;14.95;55.85;99736.38;5064645;27;45484;-71
2023/04/12 08:59:37;;;;;;;;;0.33;0.00;;;;;15.14;54.76;99741.94;5066754;27;45435;-72
2023/04/12 09:02:03;;;;;;;;;0.00;0.00;;;;;15.23;53.94;99731.97;5066977;27;45478;-69
2023/04/12 09:04:29;;;;;;;;;0.00;0.00;;;;;15.30;52.59;99742.31;5061574;27;45535;-69
2023/04/12 09:06:55;;;;;;;;;0.00;0.00;;;;;15.32;52.80;99758.94;5056826;27;45398;-71
2023/04/12 09:09:46;;;;;;;;;0.00;0.00;;;;;15.25;52.39;99751.22;5056249;27;45331;-72
2023/04/12 09:12:13;;;;;;;;;1.00;1.00;;;;;15.37;51.93;99760.50;5067696;27;45234;-69
2023/04/12 09:14:42;;;;;;;;;2.00;1.67;;;;;15.20;51.66;99741.75;5065528;28;45406;-72
2023/04/12 09:17:24;;;;;;;;;0.00;0.00;;;;;15.35;52.43;99759.72;5068315;27;45520;-74
2023/04/12 09:19:50;;;;;;;;;1.33;0.00;;;;;15.38;52.06;99759.59;5063644;28;46841;-73
2023/04/12 09:22:16;;;;;;;;;1.33;0.00;;;;;15.26;51.92;99757.38;5081186;27;45487;-69
2023/04/12 09:24:48;;;;;;;;;0.00;0.00;;;;;15.26;51.28;99760.88;5055226;27;45928;-71
2023/04/12 09:27:14;;;;;;;;;0.00;0.00;;;;;15.32;51.54;99745.75;5089515;27;45529;-72
2023/04/12 09:29:39;;;;;;;;;0.00;0.00;;;;;15.53;50.59;99767.94;5063881;27;45527;-69
2023/04/12 09:32:07;;;;;;;;;1.00;0.00;;;;;15.49;51.68;99759.22;5064491;27;45413;-70
2023/04/12 09:34:34;;;;;;;;;0.00;0.00;;;;;15.51;51.90;99767.97;5062537;27;45403;-76
2023/04/12 09:37:15;;;;;;;;;0.33;0.33;;;;;15.40;52.71;99762.19;5067220;28;45483;-71
2023/04/12 09:39:41;;;;;;;;;2.00;1.00;;;;;15.59;51.54;99762.41;5059763;28;46783;-71
2023/04/12 09:42:09;;;;;;;;;0.00;0.00;;;;;15.70;51.78;99752.41;5092622;27;45532;-71
2023/04/12 09:44:34;;;;;;;;;1.67;0.00;;;;;15.67;52.17;99741.91;5077046;27;45354;-76
2023/04/12 09:47:01;;;;;;;;;0.00;0.00;;;;;15.62;50.84;99750.00;5096600;27;45393;-71
2023/04/12 09:49:40;;;;;;;;;1.00;1.00;;;;;15.53;51.22;99760.00;5082607;27;47064;-71
2023/04/12 09:52:07;;;;;;;;;0.33;0.33;;;;;15.52;51.36;99776.75;5081076;27;45579;-76
2023/04/12 09:54:40;;;;;;;;;1.00;0.00;;;;;15.35;50.51;99767.63;5095251;27;45503;-78
2023/04/12 09:57:09;;;;;;;;;0.33;0.00;;;;;15.45;50.86;99784.88;5078526;27;45361;-78
2023/04/12 09:59:38;;;;;;;;;2.00;1.00;;;;;15.51;50.96;99789.06;5077034;28;47072;-78
2023/04/12 10:02:10;;;;;;;;;2.67;1.00;;;;;15.45;50.32;99768.19;5078435;27;45958;-78
2023/04/12 10:04:38;;;;;;;;;0.67;0.00;;;;;15.58;50.45;99790.59;5079617;27;45281;-75
2023/04/12 10:07:05;;;;;;;;;0.00;0.00;;;;;15.59;50.39;99784.44;5062442;28;45802;-77
2023/04/12 10:09:36;;;;;;;;;1.00;1.00;;;;;15.61;49.47;99781.72;5071946;27;46060;-75
2023/04/12 10:12:04;;;;;;;;;0.00;0.00;;;;;15.74;50.57;99769.00;5084504;28;45817;-74
2023/04/12 10:14:37;;;;;;;;;0.67;0.00;;;;;15.87;50.65;99780.84;5079167;27;45353;-75
2023/04/12 10:17:03;;;;;;;;;3.00;2.00;;;;;16.07;51.05;99772.25;5082298;27;45526;-76
2023/04/12 10:19:32;;;;;;;;;1.00;1.00;;;;;16.22;51.40;99765.53;5080421;28;46597;-72
2023/04/12 10:21:59;;;;;;;;;1.00;1.00;;;;;16.30;48.82;99774.91;5081740;27;45318;-70
2023/04/12 10:24:27;;;;;;;;;1.00;1.00;;;;;16.29;46.71;99757.31;5070808;28;45430;-72
2023/04/12 10:26:54;;;;;;;;;0.00;0.00;;;;;16.17;45.96;99762.19;5054402;27;45662;-71
2023/04/12 10:29:27;;;;;;;;;1.00;1.00;;;;;16.08;45.56;99769.53;5074953;28;45724;-76
2023/04/12 10:31:56;;;;;;;;;8.00;6.00;;;;;15.98;44.68;99762.00;5076574;27;45405;-71
2023/04/12 10:34:29;;;;;;;;;30.50;27.75;;;;;16.00;45.24;99755.75;5068579;27;45799;-71
2023/04/12 10:37:00;;;;;;;;;48.00;38.00;;;;;15.67;45.00;99763.88;5068252;27;45593;-72
2023/04/12 10:39:51;;;;;;;;;7.67;7.33;;;;;15.67;45.07;99784.16;5077258;27;48151;-70
2023/04/12 10:42:23;;;;;;;;;15.00;13.67;;;;;15.64;45.64;99782.47;5077815;28;45350;-71
2023/04/12 10:44:51;;;;;;;;;4.00;4.00;;;;;15.73;45.71;99772.53;5079382;27;45638;-74
2023/04/12 10:47:48;;;;;;;;;4.67;4.00;;;;;16.02;45.19;99779.47;5076685;28;45501;-72
2023/04/12 10:50:29;;;;;;;;;16.67;16.33;;;;;16.20;44.28;99776.13;5077219;27;47347;-70
2023/04/12 10:53:17;;;;;;;;;3.00;3.00;;;;;16.42;43.44;99773.59;5060376;27;45493;-70
2023/04/12 10:55:44;;;;;;;;;3.00;3.00;;;;;16.47;41.81;99768.13;5074819;28;45571;-70
2023/04/12 10:58:30;;;;;;;;;2.00;1.00;;;;;16.57;41.33;99781.84;5074511;27;45663;-71
2023/04/12 11:00:56;;;;;;;;;5.00;5.00;;;;;16.75;41.19;99786.41;5078199;28;46353;-72
2023/04/12 11:03:23;;;;;;;;;2.00;2.00;;;;;16.71;40.42;99771.63;5075414;27;45884;-71
2023/04/12 11:06:00;;;;;;;;;6.00;4.33;;;;;16.77;40.73;99773.16;5075144;27;45467;-72
2023/04/12 11:08:28;;;;;;;;;6.67;5.00;;;;;16.57;41.07;99774.78;5075563;27;45449;-73
2023/04/12 11:11:16;;;;;;;;;19.67;16.00;;;;;16.65;40.82;99787.69;5076480;27;46039;-76
2023/04/12 11:13:42;;;;;;;;;10.00;7.67;;;;;16.54;40.79;99754.63;5074471;27;45513;-74
2023/04/12 11:16:11;;;;;;;;;3.00;3.00;;;;;16.90;40.79;99771.78;5075761;28;45512;-74
2023/04/12 11:18:38;;;;;;;;;3.67;3.00;;;;;17.03;41.09;99764.22;5079940;28;45453;-75
2023/04/12 11:21:04;;;;;;;;;13.67;11.67;;;;;16.99;40.77;99773.19;5090090;27;45518;-74
2023/04/12 11:23:32;;;;;;;;;7.00;5.00;;;;;16.85;40.72;99760.53;5076311;27;45511;-73
2023/04/12 11:25:57;;;;;;;;;8.00;3.33;;;;;16.89;39.88;99751.53;5076082;27;45399;-70
2023/04/12 11:28:24;;;;;;;;;3.33;2.67;;;;;17.00;39.89;99777.56;5090858;27;45401;-74
2023/04/12 11:30:54;;;;;;;;;4.33;2.33;;;;;17.08;40.00;99773.69;5088823;27;47384;-72
2023/04/12 11:33:33;;;;;;;;;1.00;1.00;;;;;17.10;40.25;99768.34;5089069;27;45574;-73
2023/04/12 11:36:03;;;;;;;;;3.00;2.67;;;;;17.02;40.43;99766.00;5089759;27;45753;-70